createdAt,value
2019-06-01T00:00:23.007Z,24.15
2019-06-01T00:02:58.209Z,29.80
2019-06-01T00:05:31.168Z,14.60
2019-06-01T00:08:04.995Z,14.28
2019-06-01T00:10:38.938Z,14.95
2019-06-01T00:13:11.962Z,15.95
2019-06-01T00:15:45.916Z,16.07
2019-06-01T00:18:19.256Z,15.50
2019-06-01T00:20:52.741Z,10.58
2019-06-01T00:23:25.769Z,11.95
2019-06-01T00:25:58.700Z,9.90
2019-06-01T00:28:31.710Z,14.25
2019-06-01T00:31:05.125Z,11.48
2019-06-01T00:33:38.069Z,11.95
2019-06-01T00:36:11.194Z,9.98
2019-06-01T00:38:44.110Z,7.55
2019-06-01T00:41:17.093Z,9.88
2019-06-01T00:43:50.480Z,11.78
2019-06-01T00:46:23.514Z,10.18
2019-06-01T00:48:56.410Z,10.90
2019-06-01T00:51:29.511Z,8.80
2019-06-01T00:54:02.871Z,10.72
2019-06-01T00:56:35.760Z,9.58
2019-06-01T00:59:08.598Z,8.73
2019-06-01T01:01:41.403Z,9.10
2019-06-01T01:04:14.507Z,11.22
2019-06-01T01:06:49.200Z,11.75
2019-06-01T01:09:22.789Z,10.38
2019-06-01T01:11:55.927Z,11.50
2019-06-01T01:14:29.040Z,12.82
2019-06-01T01:17:01.997Z,12.58
2019-06-01T01:19:35.350Z,12.80
2019-06-01T01:22:09.448Z,16.57
2019-06-01T01:24:42.522Z,12.33
2019-06-01T01:27:15.625Z,14.10
2019-06-01T01:29:48.994Z,11.83
2019-06-01T01:32:22.235Z,18.10
2019-06-01T01:34:55.613Z,18.37
2019-06-01T01:37:28.767Z,15.68
2019-06-01T01:40:01.802Z,25.90
2019-06-01T01:42:35.051Z,37.63
2019-06-01T01:45:11.100Z,33.08
2019-06-01T01:47:44.021Z,37.45
2019-06-01T01:50:17.231Z,34.78
2019-06-01T01:52:50.782Z,34.90
2019-06-01T01:55:23.857Z,37.05
2019-06-01T01:57:57.607Z,31.27
2019-06-01T02:00:37.145Z,31.65
2019-06-01T02:03:11.484Z,20.72
2019-06-01T02:05:44.706Z,17.82
2019-06-01T02:08:19.197Z,16.30
2019-06-01T02:10:53.313Z,15.05
2019-06-01T02:13:26.420Z,12.88
2019-06-01T02:16:00.552Z,12.25
2019-06-01T02:18:33.893Z,12.82
2019-06-01T02:21:06.878Z,12.03
2019-06-01T02:23:39.938Z,11.88
2019-06-01T02:26:12.836Z,12.90
2019-06-01T02:28:45.948Z,13.68
2019-06-01T02:31:20.169Z,10.43
2019-06-01T02:33:53.779Z,13.15
2019-06-01T02:36:27.050Z,14.58
2019-06-01T02:39:01.065Z,12.15
2019-06-01T02:41:36.129Z,18.05
2019-06-01T02:44:09.092Z,14.68
2019-06-01T02:46:42.268Z,13.90
2019-06-01T02:49:15.644Z,12.85
2019-06-01T02:51:48.538Z,19.65
2019-06-01T02:54:21.511Z,19.67
2019-06-01T02:56:54.410Z,18.67
2019-06-01T02:59:27.465Z,37.13
2019-06-01T03:02:07.367Z,35.03
2019-06-01T03:04:36.312Z,37.10
2019-06-01T03:07:10.548Z,42.05
2019-06-01T03:09:43.498Z,58.25
2019-06-01T03:12:16.467Z,49.73
2019-06-01T03:14:49.578Z,69.80
2019-06-01T03:17:24.718Z,59.67
2019-06-01T03:19:57.765Z,63.45
2019-06-01T03:22:30.603Z,72.80
2019-06-01T03:25:08.695Z,56.60
2019-06-01T03:27:42.639Z,67.70
2019-06-01T03:30:19.074Z,80.00
2019-06-01T03:32:52.029Z,81.72
2019-06-01T03:35:26.779Z,78.85
2019-06-01T03:38:00.811Z,74.15
2019-06-01T03:40:33.954Z,91.40
2019-06-01T03:43:07.273Z,80.30
2019-06-01T03:45:41.397Z,91.80
2019-06-01T03:48:14.327Z,91.53
2019-06-01T03:50:47.136Z,97.50
2019-06-01T03:53:20.243Z,87.10
2019-06-01T03:55:53.307Z,85.22
2019-06-01T03:58:26.496Z,77.27
2019-06-01T04:01:00.823Z,81.47
2019-06-01T04:03:33.837Z,80.53
2019-06-01T04:06:07.353Z,89.80
2019-06-01T04:08:40.479Z,96.57
2019-06-01T04:11:13.449Z,106.80
2019-06-01T04:13:47.311Z,87.85
2019-06-01T04:16:20.206Z,104.17
2019-06-01T04:18:53.173Z,108.20
2019-06-01T04:21:26.265Z,105.83
2019-06-01T04:23:59.155Z,91.32
2019-06-01T04:26:32.171Z,84.28
2019-06-01T04:29:06.380Z,60.65
2019-06-01T04:31:39.446Z,53.13
2019-06-01T04:34:13.129Z,52.05
2019-06-01T04:36:46.258Z,37.80
2019-06-01T04:39:19.303Z,43.30
2019-06-01T04:41:52.394Z,26.73
2019-06-01T04:44:25.549Z,18.77
2019-06-01T04:46:58.588Z,30.30
2019-06-01T04:49:31.799Z,22.60
2019-06-01T04:52:04.908Z,23.50
2019-06-01T04:54:37.855Z,14.35
2019-06-01T04:57:11.036Z,16.10
2019-06-01T04:59:43.953Z,21.68
2019-06-01T05:02:17.103Z,15.03
2019-06-01T05:04:49.980Z,14.70
2019-06-01T05:07:23.012Z,16.57
2019-06-01T05:09:55.755Z,22.60
2019-06-01T05:12:28.803Z,13.95
2019-06-01T05:15:01.765Z,22.60
2019-06-01T05:17:34.881Z,26.75
2019-06-01T05:20:08.283Z,22.20
2019-06-01T05:22:41.435Z,19.55
2019-06-01T05:25:15.301Z,32.05
2019-06-01T05:27:48.483Z,32.55
2019-06-01T05:30:21.383Z,44.38
2019-06-01T05:32:54.423Z,33.38
2019-06-01T05:35:27.494Z,46.55
2019-06-01T05:38:00.499Z,36.55
2019-06-01T05:40:33.629Z,28.42
2019-06-01T05:43:06.351Z,27.75
2019-06-01T05:45:39.369Z,25.27
2019-06-01T05:48:16.171Z,18.23
2019-06-01T05:50:47.039Z,16.10
2019-06-01T05:53:20.087Z,22.27
2019-06-01T05:55:53.036Z,13.28
2019-06-01T05:58:29.203Z,14.63
2019-06-01T06:01:00.863Z,12.78
2019-06-01T06:03:40.335Z,15.20
2019-06-01T06:06:09.178Z,12.53
2019-06-01T06:08:42.070Z,12.50
2019-06-01T06:11:16.992Z,13.38
2019-06-01T06:13:50.003Z,21.30
2019-06-01T06:16:23.120Z,13.35
2019-06-01T06:18:56.086Z,18.02
2019-06-01T06:21:28.929Z,13.53
2019-06-01T06:24:01.983Z,12.60
2019-06-01T06:26:34.912Z,14.20
2019-06-01T06:29:07.975Z,14.47
2019-06-01T06:31:40.851Z,10.08
2019-06-01T06:34:13.780Z,26.48
2019-06-01T06:36:46.738Z,15.15
2019-06-01T06:39:20.030Z,12.78
2019-06-01T06:41:53.129Z,14.10
2019-06-01T06:44:26.383Z,19.37
2019-06-01T06:46:59.367Z,16.65
2019-06-01T06:49:32.473Z,23.07
2019-06-01T06:52:05.698Z,19.20
2019-06-01T06:54:38.669Z,16.12
2019-06-01T06:57:11.913Z,17.17
2019-06-01T06:59:44.822Z,14.30
2019-06-01T07:02:18.759Z,14.25
2019-06-01T07:04:51.944Z,13.13
2019-06-01T07:07:25.807Z,17.42
2019-06-01T07:09:59.018Z,13.13
2019-06-01T07:12:32.416Z,14.55
2019-06-01T07:15:06.618Z,10.45
2019-06-01T07:17:40.508Z,13.10
2019-06-01T07:20:13.639Z,13.98
2019-06-01T07:22:47.023Z,14.40
2019-06-01T07:25:19.969Z,16.48
2019-06-01T07:27:53.003Z,15.65
2019-06-01T07:30:26.408Z,9.93
2019-06-01T07:32:59.400Z,14.63
2019-06-01T07:35:32.762Z,16.12
2019-06-01T07:38:05.855Z,11.22
2019-06-01T07:40:38.802Z,11.78
2019-06-01T07:43:11.765Z,12.35
2019-06-01T07:45:44.920Z,12.13
2019-06-01T07:48:17.894Z,12.98
2019-06-01T07:50:50.876Z,13.60
2019-06-01T07:53:24.135Z,11.60
2019-06-01T07:55:58.156Z,10.15
2019-06-01T07:58:31.070Z,16.55
2019-06-01T08:01:04.222Z,10.80
2019-06-01T08:03:37.260Z,15.60
2019-06-01T08:06:10.207Z,10.75
2019-06-01T08:08:43.133Z,15.80
2019-06-01T08:11:16.108Z,12.20
2019-06-01T08:13:49.165Z,14.25
2019-06-01T08:16:23.559Z,9.20
2019-06-01T08:18:56.591Z,9.43
2019-06-01T08:21:30.173Z,7.97
2019-06-01T08:24:03.086Z,12.90
2019-06-01T08:26:35.981Z,7.20
2019-06-01T08:29:09.016Z,8.13
2019-06-01T08:31:42.028Z,9.78
2019-06-01T08:34:14.887Z,10.60
2019-06-01T08:36:47.933Z,9.20
2019-06-01T08:39:20.797Z,13.25
2019-06-01T08:41:53.785Z,9.65
2019-06-01T08:44:27.722Z,9.15
2019-06-01T08:47:00.655Z,11.70
2019-06-01T08:49:34.490Z,10.25
2019-06-01T08:52:07.626Z,8.03
2019-06-01T08:54:40.471Z,9.15
2019-06-01T08:57:13.431Z,4.05
2019-06-01T08:59:46.219Z,4.40
2019-06-01T09:02:19.144Z,7.17
2019-06-01T09:04:52.026Z,8.33
2019-06-01T09:07:24.893Z,7.17
2019-06-01T09:09:58.025Z,5.65
2019-06-01T09:12:31.413Z,7.33
2019-06-01T09:15:06.883Z,7.53
2019-06-01T09:17:39.907Z,4.90
2019-06-01T09:20:13.929Z,8.40
2019-06-01T09:22:48.207Z,7.12
2019-06-01T09:25:21.304Z,7.35
2019-06-01T09:27:54.169Z,5.33
2019-06-01T09:30:27.990Z,5.90
2019-06-01T09:33:01.118Z,7.90
2019-06-01T09:35:52.561Z,8.63
2019-06-01T09:38:08.804Z,7.75
2019-06-01T09:40:41.860Z,5.15
2019-06-01T09:43:14.824Z,7.33
2019-06-01T09:45:52.765Z,7.62
2019-06-01T09:48:22.535Z,5.45
2019-06-01T09:50:55.446Z,6.72
2019-06-01T09:53:29.380Z,4.67
2019-06-01T09:56:03.151Z,6.40
2019-06-01T09:58:36.904Z,6.95
2019-06-01T10:01:09.979Z,4.70
2019-06-01T10:03:42.945Z,6.70
2019-06-01T10:06:15.947Z,10.32
2019-06-01T10:08:48.889Z,4.28
2019-06-01T10:11:21.738Z,4.58
2019-06-01T10:13:54.786Z,7.53
2019-06-01T10:16:27.717Z,5.05
2019-06-01T10:19:17.033Z,6.03
2019-06-01T10:22:06.038Z,4.35
2019-06-01T10:24:39.354Z,6.15
2019-06-01T10:27:12.346Z,4.70
2019-06-01T10:29:45.477Z,7.30
2019-06-01T10:32:18.661Z,7.33
2019-06-01T10:34:51.826Z,5.70
2019-06-01T10:37:24.811Z,7.37
2019-06-01T10:39:58.038Z,5.25
2019-06-01T10:42:32.675Z,5.00
2019-06-01T10:45:07.065Z,6.37
2019-06-01T10:47:40.207Z,5.30
2019-06-01T10:50:17.133Z,5.78
2019-06-01T10:52:48.004Z,8.90
2019-06-01T10:55:21.121Z,10.50
2019-06-01T10:57:54.139Z,7.42
2019-06-01T11:00:39.863Z,9.43
2019-06-01T11:03:01.872Z,8.95
2019-06-01T11:05:35.060Z,5.67
2019-06-01T11:08:07.971Z,8.98
2019-06-01T11:10:43.100Z,6.95
2019-06-01T11:13:16.316Z,7.37
2019-06-01T11:15:49.353Z,4.97
2019-06-01T11:18:22.311Z,9.03
2019-06-01T11:20:55.202Z,6.50
2019-06-01T11:23:28.180Z,5.97
2019-06-01T11:26:01.461Z,4.65
2019-06-01T11:28:36.071Z,4.87
2019-06-01T11:31:09.277Z,4.25
2019-06-01T11:33:42.330Z,4.42
2019-06-01T11:36:16.286Z,8.15
2019-06-01T11:38:49.328Z,6.62
2019-06-01T11:41:22.359Z,6.08
2019-06-01T11:43:55.325Z,5.55
2019-06-01T11:46:28.256Z,8.48
2019-06-01T11:49:01.253Z,5.78
2019-06-01T11:51:34.880Z,5.55
2019-06-01T11:54:08.069Z,4.65
2019-06-01T11:56:41.349Z,5.35
2019-06-01T11:59:14.386Z,6.15
2019-06-01T12:01:47.310Z,5.75
2019-06-01T12:04:20.352Z,6.10
2019-06-01T12:06:53.321Z,5.20
2019-06-01T12:09:26.410Z,6.78
2019-06-01T12:11:59.563Z,7.05
2019-06-01T12:14:32.623Z,5.37
2019-06-01T12:17:05.830Z,5.25
2019-06-01T12:19:38.791Z,5.70
2019-06-01T12:22:11.756Z,5.72
2019-06-01T12:24:45.096Z,5.97
2019-06-01T12:27:18.830Z,7.85
2019-06-01T12:29:52.687Z,7.08
2019-06-01T12:32:25.867Z,5.80
2019-06-01T12:35:03.040Z,6.67
2019-06-01T12:37:54.925Z,6.08
2019-06-01T12:40:09.324Z,4.25
2019-06-01T12:42:43.739Z,6.35
2019-06-01T12:45:23.314Z,5.33
2019-06-01T12:47:58.567Z,4.62
2019-06-01T12:50:31.149Z,4.58
2019-06-01T12:53:04.098Z,6.20
2019-06-01T12:55:37.057Z,6.20
2019-06-01T12:58:10.190Z,5.70
2019-06-01T13:00:44.215Z,5.90
2019-06-01T13:03:17.360Z,5.75
2019-06-01T13:05:50.377Z,5.22
2019-06-01T13:08:23.375Z,5.70
2019-06-01T13:10:56.443Z,6.58
2019-06-01T13:13:29.465Z,4.42
2019-06-01T13:16:02.522Z,6.45
2019-06-01T13:18:35.429Z,7.05
2019-06-01T13:21:08.427Z,7.67
2019-06-01T13:23:41.455Z,8.00
2019-06-01T13:26:14.356Z,6.45
2019-06-01T13:28:48.299Z,7.03
2019-06-01T13:31:21.324Z,5.30
2019-06-01T13:33:54.248Z,6.03
2019-06-01T13:36:27.302Z,5.08
2019-06-01T13:39:00.335Z,5.28
2019-06-01T13:41:33.282Z,6.12
2019-06-01T13:44:06.493Z,3.90
2019-06-01T13:46:39.424Z,5.72
2019-06-01T13:49:12.435Z,5.40
2019-06-01T13:51:47.856Z,10.18
2019-06-01T13:54:21.082Z,7.47
2019-06-01T13:56:55.172Z,6.45
2019-06-01T13:59:28.145Z,6.87
2019-06-01T14:02:01.197Z,6.33
2019-06-01T14:04:34.194Z,6.78
2019-06-01T14:07:07.218Z,4.95
2019-06-01T14:09:40.195Z,4.60
2019-06-01T14:12:13.084Z,9.18
2019-06-01T14:14:47.385Z,9.70
2019-06-01T14:17:20.432Z,8.20
2019-06-01T14:19:53.806Z,6.80
2019-06-01T14:22:27.009Z,15.15
2019-06-01T14:25:12.779Z,30.17
2019-06-01T14:27:36.603Z,33.45
2019-06-01T14:30:09.710Z,26.95
2019-06-01T14:32:42.678Z,21.57
2019-06-01T14:35:15.597Z,15.15
2019-06-01T14:37:48.775Z,17.12
2019-06-01T14:40:22.743Z,15.10
2019-06-01T14:42:55.740Z,15.25
2019-06-01T14:45:28.784Z,10.15
2019-06-01T14:48:01.833Z,14.53
2019-06-01T14:50:36.288Z,17.02
2019-06-01T14:53:09.261Z,17.52
2019-06-01T14:55:42.315Z,22.77
2019-06-01T14:58:15.367Z,31.20
2019-06-01T15:00:50.211Z,68.35
2019-06-01T15:03:23.375Z,36.35
2019-06-01T15:05:56.853Z,16.93
2019-06-01T15:08:29.992Z,36.10
2019-06-01T15:11:02.943Z,29.90
2019-06-01T15:13:36.067Z,14.28
2019-06-01T15:16:09.111Z,15.43
2019-06-01T15:18:42.247Z,17.90
2019-06-01T15:21:15.150Z,31.93
2019-06-01T15:23:48.088Z,41.05
2019-06-01T15:26:21.184Z,23.98
2019-06-01T15:28:54.716Z,21.68
2019-06-01T15:31:27.889Z,37.20
2019-06-01T15:34:01.838Z,39.65
2019-06-01T15:36:36.421Z,48.90
2019-06-01T15:39:23.679Z,28.05
2019-06-01T15:41:44.838Z,22.48
2019-06-01T15:44:17.905Z,19.75
2019-06-01T15:46:51.554Z,26.00
2019-06-01T15:49:24.562Z,22.13
2019-06-01T15:51:57.857Z,31.70
2019-06-01T15:54:30.984Z,39.27
2019-06-01T15:57:04.044Z,53.90
2019-06-01T15:59:37.026Z,47.75
2019-06-01T16:02:10.187Z,42.67
2019-06-01T16:04:43.116Z,38.30
2019-06-01T16:07:16.160Z,38.85
2019-06-01T16:09:49.133Z,41.35
2019-06-01T16:12:22.106Z,45.55
2019-06-01T16:14:55.487Z,35.70
2019-06-01T16:17:28.613Z,43.85
2019-06-01T16:20:02.298Z,42.05
2019-06-01T16:22:35.687Z,48.23
2019-06-01T16:25:08.945Z,53.98
2019-06-01T16:27:41.946Z,47.90
2019-06-01T16:30:16.299Z,42.17
2019-06-01T16:32:49.388Z,36.60
2019-06-01T16:35:22.441Z,34.67
2019-06-01T16:37:57.738Z,43.80
2019-06-01T16:40:31.850Z,54.20
2019-06-01T16:43:05.732Z,40.58
2019-06-01T16:45:39.093Z,33.40
2019-06-01T16:48:13.071Z,38.75
2019-06-01T16:50:46.013Z,27.73
2019-06-01T16:53:18.985Z,25.55
2019-06-01T16:55:52.090Z,20.57
2019-06-01T16:58:25.047Z,19.62
2019-06-01T17:00:58.556Z,20.05
2019-06-01T17:03:31.664Z,36.15
2019-06-01T17:06:04.829Z,29.75
2019-06-01T17:08:38.563Z,35.98
2019-06-01T17:11:11.488Z,38.70
2019-06-01T17:13:44.597Z,38.23
2019-06-01T17:16:17.662Z,46.02
2019-06-01T17:18:50.789Z,51.20
2019-06-01T17:21:23.902Z,46.95
2019-06-01T17:23:58.060Z,51.00
2019-06-01T17:26:31.173Z,60.60
2019-06-01T17:29:06.170Z,51.77
2019-06-01T17:31:53.644Z,46.77
2019-06-01T17:34:13.888Z,49.60
2019-06-01T17:36:46.908Z,46.48
2019-06-01T17:39:19.956Z,39.88
2019-06-01T17:41:52.939Z,38.98
2019-06-01T17:44:25.966Z,42.98
2019-06-01T17:46:59.923Z,41.63
2019-06-01T17:49:33.220Z,52.27
2019-06-01T17:52:07.680Z,40.17
2019-06-01T17:54:40.960Z,37.98
2019-06-01T17:57:14.027Z,33.70
2019-06-01T17:59:47.163Z,44.08
2019-06-01T18:02:20.255Z,46.25
2019-06-01T18:04:53.247Z,41.18
2019-06-01T18:07:26.452Z,50.20
2019-06-01T18:09:59.513Z,46.68
2019-06-01T18:12:32.480Z,48.40
2019-06-01T18:15:08.322Z,48.78
2019-06-01T18:17:41.339Z,44.65
2019-06-01T18:20:14.535Z,50.58
2019-06-01T18:22:48.794Z,56.33
2019-06-01T18:25:25.181Z,57.95
2019-06-01T18:27:58.189Z,60.98
2019-06-01T18:30:31.221Z,49.73
2019-06-01T18:33:04.861Z,54.95
2019-06-01T18:35:37.962Z,55.17
2019-06-01T18:38:12.765Z,56.42
2019-06-01T18:40:45.764Z,45.70
2019-06-01T18:43:19.622Z,40.20
2019-06-01T18:45:52.669Z,19.45
2019-06-01T18:48:25.737Z,12.13
2019-06-01T18:50:58.867Z,9.63
2019-06-01T18:53:32.338Z,11.22
2019-06-01T18:56:06.024Z,15.98
2019-06-01T18:58:40.100Z,17.82
2019-06-01T19:01:14.648Z,18.50
2019-06-01T19:03:47.878Z,19.70
2019-06-01T19:06:21.485Z,19.07
2019-06-01T19:08:54.367Z,17.30
2019-06-01T19:11:35.214Z,20.60
2019-06-01T19:14:02.185Z,21.20
2019-06-01T19:16:35.176Z,13.43
2019-06-01T19:19:08.334Z,20.80
2019-06-01T19:21:41.453Z,18.15
2019-06-01T19:24:14.682Z,12.88
2019-06-01T19:26:47.927Z,12.53
2019-06-01T19:29:20.971Z,15.78
2019-06-01T19:31:54.173Z,7.75
2019-06-01T19:34:28.237Z,13.70
2019-06-01T19:37:01.757Z,10.72
2019-06-01T19:39:34.719Z,5.80
2019-06-01T19:42:09.102Z,7.37
2019-06-01T19:44:42.263Z,5.33
2019-06-01T19:47:16.067Z,5.85
2019-06-01T19:49:49.396Z,6.87
2019-06-01T19:52:22.408Z,8.80
2019-06-01T19:54:55.521Z,10.72
2019-06-01T19:57:28.562Z,6.97
2019-06-01T20:00:01.584Z,13.80
2019-06-01T20:02:34.707Z,12.40
2019-06-01T20:05:07.715Z,10.85
2019-06-01T20:07:42.302Z,12.28
2019-06-01T20:10:18.405Z,7.40
2019-06-01T20:12:51.703Z,7.12
2019-06-01T20:15:24.655Z,6.90
2019-06-01T20:17:57.808Z,7.58
2019-06-01T20:20:30.875Z,4.15
2019-06-01T20:23:04.265Z,6.50
2019-06-01T20:25:38.052Z,6.90
